sensor_id;sensor_type;location;lat;lon;timestamp;P1;durP1;ratioP1;P2;durP2;ratioP2
59127;SDS011;44912;52.754;5.994;2024-03-23T00:54:09;21.02;;;4.10;;
59127;SDS011;44912;52.754;5.994;2024-03-23T00:56:35;18.75;;;4.05;;
59127;SDS011;44912;52.754;5.994;2024-03-23T00:59:00;23.35;;;4.55;;
59127;SDS011;44912;52.754;5.994;2024-03-23T01:01:26;20.70;;;4.03;;
59127;SDS011;44912;52.754;5.994;2024-03-23T01:03:51;17.65;;;3.53;;
59127;SDS011;44912;52.754;5.994;2024-03-23T01:06:17;20.65;;;4.72;;
59127;SDS011;44912;52.754;5.994;2024-03-23T01:08:42;18.85;;;4.38;;
59127;SDS011;44912;52.754;5.994;2024-03-23T01:11:08;20.45;;;4.13;;
59127;SDS011;44912;52.754;5.994;2024-03-23T01:13:34;16.88;;;3.78;;
59127;SDS011;44912;52.754;5.994;2024-03-23T01:15:59;17.45;;;4.32;;
59127;SDS011;44912;52.754;5.994;2024-03-23T01:18:25;25.52;;;4.32;;
59127;SDS011;44912;52.754;5.994;2024-03-23T01:20:54;15.85;;;3.95;;
59127;SDS011;44912;52.754;5.994;2024-03-23T01:23:19;25.48;;;4.30;;
59127;SDS011;44912;52.754;5.994;2024-03-23T01:25:54;19.70;;;3.70;;
59127;SDS011;44912;52.754;5.994;2024-03-23T01:28:20;16.40;;;3.70;;
59127;SDS011;44912;52.754;5.994;2024-03-23T01:30:46;17.38;;;3.58;;
59127;SDS011;44912;52.754;5.994;2024-03-23T01:33:12;21.10;;;3.85;;
59127;SDS011;44912;52.754;5.994;2024-03-23T01:35:38;22.70;;;3.70;;
59127;SDS011;44912;52.754;5.994;2024-03-23T01:38:03;24.20;;;4.18;;
59127;SDS011;44912;52.754;5.994;2024-03-23T01:40:29;21.65;;;4.03;;
59127;SDS011;44912;52.754;5.994;2024-03-23T01:43:09;18.33;;;3.97;;
59127;SDS011;44912;52.754;5.994;2024-03-23T01:45:35;19.42;;;3.85;;
59127;SDS011;44912;52.754;5.994;2024-03-23T01:48:01;19.83;;;3.38;;
59127;SDS011;44912;52.754;5.994;2024-03-23T01:50:28;20.52;;;3.58;;
59127;SDS011;44912;52.754;5.994;2024-03-23T01:52:55;26.85;;;3.97;;
59127;SDS011;44912;52.754;5.994;2024-03-23T01:55:22;29.52;;;3.85;;
59127;SDS011;44912;52.754;5.994;2024-03-23T01:57:48;19.80;;;3.42;;
59127;SDS011;44912;52.754;5.994;2024-03-23T02:00:14;20.95;;;3.55;;
59127;SDS011;44912;52.754;5.994;2024-03-23T02:02:46;18.23;;;3.08;;
59127;SDS011;44912;52.754;5.994;2024-03-23T02:05:12;21.42;;;3.15;;
59127;SDS011;44912;52.754;5.994;2024-03-23T02:07:39;21.58;;;4.50;;
59127;SDS011;44912;52.754;5.994;2024-03-23T02:10:06;20.10;;;3.85;;
59127;SDS011;44912;52.754;5.994;2024-03-23T02:12:32;18.50;;;3.40;;
59127;SDS011;44912;52.754;5.994;2024-03-23T02:14:58;13.70;;;2.83;;
59127;SDS011;44912;52.754;5.994;2024-03-23T02:17:24;22.55;;;3.35;;
59127;SDS011;44912;52.754;5.994;2024-03-23T02:19:50;14.88;;;3.33;;
59127;SDS011;44912;52.754;5.994;2024-03-23T02:22:15;16.20;;;3.30;;
59127;SDS011;44912;52.754;5.994;2024-03-23T02:24:41;20.88;;;3.70;;
59127;SDS011;44912;52.754;5.994;2024-03-23T02:27:07;22.10;;;3.33;;
59127;SDS011;44912;52.754;5.994;2024-03-23T02:29:33;18.58;;;4.03;;
59127;SDS011;44912;52.754;5.994;2024-03-23T02:31:59;20.30;;;3.75;;
59127;SDS011;44912;52.754;5.994;2024-03-23T02:34:24;21.13;;;3.47;;
59127;SDS011;44912;52.754;5.994;2024-03-23T02:36:50;25.05;;;3.33;;
59127;SDS011;44912;52.754;5.994;2024-03-23T02:39:16;21.08;;;4.03;;
59127;SDS011;44912;52.754;5.994;2024-03-23T02:41:41;17.10;;;3.08;;
59127;SDS011;44912;52.754;5.994;2024-03-23T02:44:07;18.10;;;3.65;;
59127;SDS011;44912;52.754;5.994;2024-03-23T02:46:33;18.30;;;3.40;;
59127;SDS011;44912;52.754;5.994;2024-03-23T02:48:58;18.27;;;3.10;;
59127;SDS011;44912;52.754;5.994;2024-03-23T02:51:24;18.67;;;3.00;;
59127;SDS011;44912;52.754;5.994;2024-03-23T02:53:49;13.85;;;3.05;;
59127;SDS011;44912;52.754;5.994;2024-03-23T02:56:15;21.42;;;3.30;;
59127;SDS011;44912;52.754;5.994;2024-03-23T02:58:42;14.07;;;3.20;;
59127;SDS011;44912;52.754;5.994;2024-03-23T03:01:08;16.88;;;3.42;;
59127;SDS011;44912;52.754;5.994;2024-03-23T03:03:34;16.95;;;3.47;;
59127;SDS011;44912;52.754;5.994;2024-03-23T03:05:59;20.05;;;3.38;;
59127;SDS011;44912;52.754;5.994;2024-03-23T03:08:25;14.85;;;3.00;;
59127;SDS011;44912;52.754;5.994;2024-03-23T03:10:50;20.92;;;3.15;;
59127;SDS011;44912;52.754;5.994;2024-03-23T03:13:16;23.88;;;4.10;;
59127;SDS011;44912;52.754;5.994;2024-03-23T03:15:45;15.52;;;2.40;;
59127;SDS011;44912;52.754;5.994;2024-03-23T03:18:11;15.98;;;3.22;;
59127;SDS011;44912;52.754;5.994;2024-03-23T03:20:40;14.45;;;2.88;;
59127;SDS011;44912;52.754;5.994;2024-03-23T03:23:06;14.57;;;2.95;;
59127;SDS011;44912;52.754;5.994;2024-03-23T03:25:32;15.95;;;2.95;;
59127;SDS011;44912;52.754;5.994;2024-03-23T03:27:58;17.27;;;3.40;;
59127;SDS011;44912;52.754;5.994;2024-03-23T03:30:24;16.45;;;2.78;;
59127;SDS011;44912;52.754;5.994;2024-03-23T03:32:52;17.85;;;3.30;;
59127;SDS011;44912;52.754;5.994;2024-03-23T03:35:19;18.25;;;3.22;;
59127;SDS011;44912;52.754;5.994;2024-03-23T03:37:45;16.73;;;2.90;;
59127;SDS011;44912;52.754;5.994;2024-03-23T03:40:11;18.55;;;3.05;;
59127;SDS011;44912;52.754;5.994;2024-03-23T03:42:37;15.73;;;3.25;;
59127;SDS011;44912;52.754;5.994;2024-03-23T03:45:03;16.63;;;2.88;;
59127;SDS011;44912;52.754;5.994;2024-03-23T03:47:29;17.77;;;2.72;;
59127;SDS011;44912;52.754;5.994;2024-03-23T03:49:55;12.55;;;2.60;;
59127;SDS011;44912;52.754;5.994;2024-03-23T03:52:21;14.45;;;2.85;;
59127;SDS011;44912;52.754;5.994;2024-03-23T03:54:46;14.80;;;2.42;;
59127;SDS011;44912;52.754;5.994;2024-03-23T03:57:12;20.20;;;3.45;;
59127;SDS011;44912;52.754;5.994;2024-03-23T03:59:38;19.13;;;2.53;;
59127;SDS011;44912;52.754;5.994;2024-03-23T04:02:03;13.93;;;2.30;;
59127;SDS011;44912;52.754;5.994;2024-03-23T04:04:29;12.93;;;2.00;;
59127;SDS011;44912;52.754;5.994;2024-03-23T04:06:58;15.75;;;2.88;;
59127;SDS011;44912;52.754;5.994;2024-03-23T04:09:24;15.02;;;2.80;;
59127;SDS011;44912;52.754;5.994;2024-03-23T04:11:50;15.18;;;2.85;;
59127;SDS011;44912;52.754;5.994;2024-03-23T04:14:16;15.50;;;2.95;;
59127;SDS011;44912;52.754;5.994;2024-03-23T04:16:41;16.25;;;2.72;;
59127;SDS011;44912;52.754;5.994;2024-03-23T04:19:07;17.80;;;3.45;;
59127;SDS011;44912;52.754;5.994;2024-03-23T04:21:33;15.95;;;2.38;;
59127;SDS011;44912;52.754;5.994;2024-03-23T04:23:59;13.23;;;2.60;;
59127;SDS011;44912;52.754;5.994;2024-03-23T04:26:24;17.45;;;2.42;;
59127;SDS011;44912;52.754;5.994;2024-03-23T04:28:50;15.95;;;2.45;;
59127;SDS011;44912;52.754;5.994;2024-03-23T04:31:15;12.93;;;2.83;;
59127;SDS011;44912;52.754;5.994;2024-03-23T04:33:41;21.60;;;2.90;;
59127;SDS011;44912;52.754;5.994;2024-03-23T04:36:07;15.10;;;2.78;;
59127;SDS011;44912;52.754;5.994;2024-03-23T04:38:32;16.95;;;2.53;;
59127;SDS011;44912;52.754;5.994;2024-03-23T04:40:59;17.83;;;1.90;;
59127;SDS011;44912;52.754;5.994;2024-03-23T04:43:28;14.90;;;2.40;;
59127;SDS011;44912;52.754;5.994;2024-03-23T04:45:53;20.17;;;2.67;;
59127;SDS011;44912;52.754;5.994;2024-03-23T04:48:20;14.48;;;2.35;;
59127;SDS011;44912;52.754;5.994;2024-03-23T04:50:54;16.02;;;2.50;;
59127;SDS011;44912;52.754;5.994;2024-03-23T04:53:20;11.13;;;2.03;;
59127;SDS011;44912;52.754;5.994;2024-03-23T04:55:46;12.80;;;2.75;;
59127;SDS011;44912;52.754;5.994;2024-03-23T04:58:11;15.05;;;3.50;;
59127;SDS011;44912;52.754;5.994;2024-03-23T05:00:37;16.48;;;2.28;;
59127;SDS011;44912;52.754;5.994;2024-03-23T05:03:03;14.30;;;2.45;;
59127;SDS011;44912;52.754;5.994;2024-03-23T05:05:29;18.95;;;2.30;;
59127;SDS011;44912;52.754;5.994;2024-03-23T05:07:55;14.80;;;2.33;;
59127;SDS011;44912;52.754;5.994;2024-03-23T05:10:20;16.35;;;2.25;;
59127;SDS011;44912;52.754;5.994;2024-03-23T05:12:46;15.85;;;2.20;;
59127;SDS011;44912;52.754;5.994;2024-03-23T05:15:12;13.98;;;2.28;;
59127;SDS011;44912;52.754;5.994;2024-03-23T05:17:37;12.43;;;2.22;;
59127;SDS011;44912;52.754;5.994;2024-03-23T05:20:03;17.92;;;2.33;;
59127;SDS011;44912;52.754;5.994;2024-03-23T05:22:34;12.00;;;2.28;;
59127;SDS011;44912;52.754;5.994;2024-03-23T05:25:00;15.50;;;2.63;;
59127;SDS011;44912;52.754;5.994;2024-03-23T05:27:29;15.07;;;2.42;;
59127;SDS011;44912;52.754;5.994;2024-03-23T05:29:55;11.63;;;1.92;;
59127;SDS011;44912;52.754;5.994;2024-03-23T05:32:21;16.08;;;2.20;;
59127;SDS011;44912;52.754;5.994;2024-03-23T05:34:47;17.58;;;2.35;;
59127;SDS011;44912;52.754;5.994;2024-03-23T05:37:12;12.07;;;2.20;;
59127;SDS011;44912;52.754;5.994;2024-03-23T05:39:38;12.15;;;2.45;;
59127;SDS011;44912;52.754;5.994;2024-03-23T05:42:04;15.70;;;2.67;;
59127;SDS011;44912;52.754;5.994;2024-03-23T05:44:29;13.48;;;2.47;;
59127;SDS011;44912;52.754;5.994;2024-03-23T05:46:56;11.02;;;2.35;;
59127;SDS011;44912;52.754;5.994;2024-03-23T05:49:22;11.55;;;2.60;;
59127;SDS011;44912;52.754;5.994;2024-03-23T05:51:47;12.63;;;2.42;;
59127;SDS011;44912;52.754;5.994;2024-03-23T05:54:13;12.82;;;2.65;;
59127;SDS011;44912;52.754;5.994;2024-03-23T05:56:39;17.85;;;3.03;;
59127;SDS011;44912;52.754;5.994;2024-03-23T05:59:05;15.60;;;2.35;;
59127;SDS011;44912;52.754;5.994;2024-03-23T06:01:31;14.52;;;2.80;;
59127;SDS011;44912;52.754;5.994;2024-03-23T06:03:57;16.52;;;2.40;;
59127;SDS011;44912;52.754;5.994;2024-03-23T06:06:23;17.10;;;2.33;;
59127;SDS011;44912;52.754;5.994;2024-03-23T06:08:49;13.45;;;2.50;;
59127;SDS011;44912;52.754;5.994;2024-03-23T06:11:14;14.25;;;2.25;;
59127;SDS011;44912;52.754;5.994;2024-03-23T06:13:40;15.43;;;2.42;;
59127;SDS011;44912;52.754;5.994;2024-03-23T06:16:05;12.90;;;2.55;;
59127;SDS011;44912;52.754;5.994;2024-03-23T06:18:32;21.35;;;3.83;;
59127;SDS011;44912;52.754;5.994;2024-03-23T06:20:57;19.50;;;3.63;;
59127;SDS011;44912;52.754;5.994;2024-03-23T06:23:23;14.43;;;3.00;;
59127;SDS011;44912;52.754;5.994;2024-03-23T06:25:48;18.70;;;3.00;;
59127;SDS011;44912;52.754;5.994;2024-03-23T06:28:14;17.67;;;2.95;;
59127;SDS011;44912;52.754;5.994;2024-03-23T06:30:40;17.52;;;3.30;;
59127;SDS011;44912;52.754;5.994;2024-03-23T06:33:05;14.35;;;3.00;;
59127;SDS011;44912;52.754;5.994;2024-03-23T06:35:31;18.40;;;3.75;;
59127;SDS011;44912;52.754;5.994;2024-03-23T06:37:56;15.77;;;3.13;;
59127;SDS011;44912;52.754;5.994;2024-03-23T06:40:23;19.73;;;3.10;;
59127;SDS011;44912;52.754;5.994;2024-03-23T06:42:49;14.02;;;3.10;;
59127;SDS011;44912;52.754;5.994;2024-03-23T06:45:15;16.35;;;3.40;;
59127;SDS011;44912;52.754;5.994;2024-03-23T06:47:41;14.43;;;2.65;;
59127;SDS011;44912;52.754;5.994;2024-03-23T06:50:07;17.35;;;2.97;;
59127;SDS011;44912;52.754;5.994;2024-03-23T06:52:32;18.67;;;2.58;;
59127;SDS011;44912;52.754;5.994;2024-03-23T06:54:58;20.15;;;2.75;;
59127;SDS011;44912;52.754;5.994;2024-03-23T06:57:23;7.50;;;1.60;;
59127;SDS011;44912;52.754;5.994;2024-03-23T06:59:49;6.95;;;1.30;;
59127;SDS011;44912;52.754;5.994;2024-03-23T07:02:15;4.63;;;1.00;;
59127;SDS011;44912;52.754;5.994;2024-03-23T07:04:41;3.17;;;0.80;;
59127;SDS011;44912;52.754;5.994;2024-03-23T07:07:07;4.88;;;1.13;;
59127;SDS011;44912;52.754;5.994;2024-03-23T07:09:32;5.35;;;0.98;;
59127;SDS011;44912;52.754;5.994;2024-03-23T07:11:58;5.47;;;1.00;;
59127;SDS011;44912;52.754;5.994;2024-03-23T07:14:24;2.45;;;0.90;;
59127;SDS011;44912;52.754;5.994;2024-03-23T07:16:50;4.80;;;0.80;;
59127;SDS011;44912;52.754;5.994;2024-03-23T07:19:16;7.60;;;1.13;;
59127;SDS011;44912;52.754;5.994;2024-03-23T07:21:43;3.25;;;1.00;;
59127;SDS011;44912;52.754;5.994;2024-03-23T07:24:09;4.18;;;0.85;;
59127;SDS011;44912;52.754;5.994;2024-03-23T07:26:35;5.65;;;1.25;;
59127;SDS011;44912;52.754;5.994;2024-03-23T07:29:01;6.30;;;1.30;;
59127;SDS011;44912;52.754;5.994;2024-03-23T07:31:27;7.30;;;1.48;;
59127;SDS011;44912;52.754;5.994;2024-03-23T07:33:52;5.65;;;1.00;;
59127;SDS011;44912;52.754;5.994;2024-03-23T07:36:18;5.55;;;1.00;;
59127;SDS011;44912;52.754;5.994;2024-03-23T07:38:44;7.10;;;1.25;;
59127;SDS011;44912;52.754;5.994;2024-03-23T07:41:16;6.25;;;1.20;;
59127;SDS011;44912;52.754;5.994;2024-03-23T07:43:43;6.55;;;1.50;;
59127;SDS011;44912;52.754;5.994;2024-03-23T07:46:10;8.77;;;1.48;;
59127;SDS011;44912;52.754;5.994;2024-03-23T07:48:37;11.25;;;1.77;;
59127;SDS011;44912;52.754;5.994;2024-03-23T07:51:09;9.13;;;1.73;;
59127;SDS011;44912;52.754;5.994;2024-03-23T07:53:46;7.80;;;1.63;;
59127;SDS011;44912;52.754;5.994;2024-03-23T07:56:12;10.15;;;1.80;;
59127;SDS011;44912;52.754;5.994;2024-03-23T07:58:40;7.55;;;1.38;;
59127;SDS011;44912;52.754;5.994;2024-03-23T08:01:12;7.63;;;1.60;;
59127;SDS011;44912;52.754;5.994;2024-03-23T08:03:40;5.55;;;1.50;;
59127;SDS011;44912;52.754;5.994;2024-03-23T08:08:40;7.05;;;1.80;;
59127;SDS011;44912;52.754;5.994;2024-03-23T08:11:06;10.00;;;2.03;;
59127;SDS011;44912;52.754;5.994;2024-03-23T08:13:34;11.27;;;2.10;;
59127;SDS011;44912;52.754;5.994;2024-03-23T08:16:02;9.80;;;1.80;;
59127;SDS011;44912;52.754;5.994;2024-03-23T08:18:28;9.38;;;2.30;;
59127;SDS011;44912;52.754;5.994;2024-03-23T08:23:27;11.88;;;2.20;;
59127;SDS011;44912;52.754;5.994;2024-03-23T08:25:57;12.18;;;1.80;;
59127;SDS011;44912;52.754;5.994;2024-03-23T08:28:23;8.32;;;1.58;;
59127;SDS011;44912;52.754;5.994;2024-03-23T08:30:49;8.15;;;1.63;;
59127;SDS011;44912;52.754;5.994;2024-03-23T08:33:15;11.00;;;1.80;;
59127;SDS011;44912;52.754;5.994;2024-03-23T08:35:41;7.43;;;1.65;;
59127;SDS011;44912;52.754;5.994;2024-03-23T08:38:07;9.10;;;1.77;;
59127;SDS011;44912;52.754;5.994;2024-03-23T08:40:33;10.75;;;1.60;;
59127;SDS011;44912;52.754;5.994;2024-03-23T08:42:58;5.57;;;1.55;;
59127;SDS011;44912;52.754;5.994;2024-03-23T08:45:24;10.85;;;2.58;;
59127;SDS011;44912;52.754;5.994;2024-03-23T08:47:50;8.52;;;1.67;;
59127;SDS011;44912;52.754;5.994;2024-03-23T08:50:16;9.52;;;1.95;;
59127;SDS011;44912;52.754;5.994;2024-03-23T08:52:42;9.43;;;1.63;;
59127;SDS011;44912;52.754;5.994;2024-03-23T08:55:08;12.85;;;2.28;;
59127;SDS011;44912;52.754;5.994;2024-03-23T08:57:34;9.85;;;1.83;;
59127;SDS011;44912;52.754;5.994;2024-03-23T09:00:01;10.25;;;2.03;;
59127;SDS011;44912;52.754;5.994;2024-03-23T09:02:27;10.15;;;2.33;;
59127;SDS011;44912;52.754;5.994;2024-03-23T09:04:53;13.20;;;2.85;;
59127;SDS011;44912;52.754;5.994;2024-03-23T09:07:18;13.68;;;2.47;;
59127;SDS011;44912;52.754;5.994;2024-03-23T09:09:44;12.05;;;2.47;;
59127;SDS011;44912;52.754;5.994;2024-03-23T09:12:09;11.63;;;2.53;;
59127;SDS011;44912;52.754;5.994;2024-03-23T09:14:35;11.13;;;2.22;;
59127;SDS011;44912;52.754;5.994;2024-03-23T09:17:01;13.73;;;2.58;;
59127;SDS011;44912;52.754;5.994;2024-03-23T09:19:27;12.60;;;2.03;;
59127;SDS011;44912;52.754;5.994;2024-03-23T09:21:54;11.25;;;2.47;;
59127;SDS011;44912;52.754;5.994;2024-03-23T09:24:19;15.70;;;2.75;;
59127;SDS011;44912;52.754;5.994;2024-03-23T09:26:46;10.63;;;2.35;;
59127;SDS011;44912;52.754;5.994;2024-03-23T09:29:11;8.98;;;1.83;;
59127;SDS011;44912;52.754;5.994;2024-03-23T09:31:37;8.82;;;1.85;;
59127;SDS011;44912;52.754;5.994;2024-03-23T09:34:03;7.40;;;1.20;;
59127;SDS011;44912;52.754;5.994;2024-03-23T09:36:29;8.18;;;1.30;;
59127;SDS011;44912;52.754;5.994;2024-03-23T09:38:54;6.43;;;1.10;;
59127;SDS011;44912;52.754;5.994;2024-03-23T09:41:20;5.18;;;1.10;;
59127;SDS011;44912;52.754;5.994;2024-03-23T09:43:46;7.97;;;1.52;;
59127;SDS011;44912;52.754;5.994;2024-03-23T09:46:13;9.40;;;1.88;;
59127;SDS011;44912;52.754;5.994;2024-03-23T09:48:39;8.48;;;2.10;;
59127;SDS011;44912;52.754;5.994;2024-03-23T09:51:06;9.07;;;1.75;;
59127;SDS011;44912;52.754;5.994;2024-03-23T09:53:34;10.80;;;2.25;;
59127;SDS011;44912;52.754;5.994;2024-03-23T09:55:59;11.00;;;1.85;;
59127;SDS011;44912;52.754;5.994;2024-03-23T09:58:25;11.38;;;2.45;;
59127;SDS011;44912;52.754;5.994;2024-03-23T10:00:51;13.05;;;1.92;;
59127;SDS011;44912;52.754;5.994;2024-03-23T10:03:16;8.07;;;1.67;;
59127;SDS011;44912;52.754;5.994;2024-03-23T10:05:42;11.70;;;1.85;;
59127;SDS011;44912;52.754;5.994;2024-03-23T10:10:40;11.57;;;2.15;;
59127;SDS011;44912;52.754;5.994;2024-03-23T10:13:06;11.73;;;2.30;;
59127;SDS011;44912;52.754;5.994;2024-03-23T10:15:35;13.95;;;2.88;;
59127;SDS011;44912;52.754;5.994;2024-03-23T10:18:20;11.60;;;2.33;;
59127;SDS011;44912;52.754;5.994;2024-03-23T10:23:30;15.23;;;3.33;;
59127;SDS011;44912;52.754;5.994;2024-03-23T10:28:56;13.05;;;2.13;;
59127;SDS011;44912;52.754;5.994;2024-03-23T10:31:33;12.20;;;2.85;;
59127;SDS011;44912;52.754;5.994;2024-03-23T10:34:02;11.13;;;1.90;;
59127;SDS011;44912;52.754;5.994;2024-03-23T10:36:29;11.50;;;2.40;;
59127;SDS011;44912;52.754;5.994;2024-03-23T10:38:55;13.80;;;2.72;;
59127;SDS011;44912;52.754;5.994;2024-03-23T10:41:25;12.73;;;2.33;;
59127;SDS011;44912;52.754;5.994;2024-03-23T10:43:52;12.18;;;2.83;;
59127;SDS011;44912;52.754;5.994;2024-03-23T10:46:20;12.52;;;2.40;;
59127;SDS011;44912;52.754;5.994;2024-03-23T10:48:46;13.13;;;2.90;;
59127;SDS011;44912;52.754;5.994;2024-03-23T10:51:12;10.63;;;2.65;;
59127;SDS011;44912;52.754;5.994;2024-03-23T10:53:39;10.27;;;2.08;;
59127;SDS011;44912;52.754;5.994;2024-03-23T10:56:05;9.23;;;1.92;;
59127;SDS011;44912;52.754;5.994;2024-03-23T10:58:34;10.63;;;2.03;;
59127;SDS011;44912;52.754;5.994;2024-03-23T11:01:06;9.73;;;2.72;;
59127;SDS011;44912;52.754;5.994;2024-03-23T11:03:36;7.30;;;1.63;;
59127;SDS011;44912;52.754;5.994;2024-03-23T11:06:03;13.13;;;2.30;;
59127;SDS011;44912;52.754;5.994;2024-03-23T11:08:39;9.88;;;2.00;;
59127;SDS011;44912;52.754;5.994;2024-03-23T11:11:19;8.43;;;2.40;;
59127;SDS011;44912;52.754;5.994;2024-03-23T11:13:52;13.85;;;2.97;;
59127;SDS011;44912;52.754;5.994;2024-03-23T11:16:25;12.38;;;2.75;;
59127;SDS011;44912;52.754;5.994;2024-03-23T11:18:53;13.43;;;2.72;;
59127;SDS011;44912;52.754;5.994;2024-03-23T11:24:20;14.57;;;3.20;;
59127;SDS011;44912;52.754;5.994;2024-03-23T11:26:47;10.60;;;2.10;;
59127;SDS011;44912;52.754;5.994;2024-03-23T11:29:16;9.40;;;2.25;;
59127;SDS011;44912;52.754;5.994;2024-03-23T11:31:49;12.57;;;2.28;;
59127;SDS011;44912;52.754;5.994;2024-03-23T11:34:19;10.77;;;1.95;;
59127;SDS011;44912;52.754;5.994;2024-03-23T11:36:45;10.68;;;2.20;;
59127;SDS011;44912;52.754;5.994;2024-03-23T11:39:15;11.40;;;2.10;;
59127;SDS011;44912;52.754;5.994;2024-03-23T11:41:45;12.23;;;2.90;;
59127;SDS011;44912;52.754;5.994;2024-03-23T11:44:19;10.17;;;1.97;;
59127;SDS011;44912;52.754;5.994;2024-03-23T11:46:46;12.77;;;2.10;;
59127;SDS011;44912;52.754;5.994;2024-03-23T11:49:21;10.82;;;2.25;;
59127;SDS011;44912;52.754;5.994;2024-03-23T11:51:48;10.82;;;2.25;;
59127;SDS011;44912;52.754;5.994;2024-03-23T11:54:13;11.88;;;2.03;;
59127;SDS011;44912;52.754;5.994;2024-03-23T11:56:39;11.95;;;2.63;;
59127;SDS011;44912;52.754;5.994;2024-03-23T11:59:06;9.45;;;2.03;;
59127;SDS011;44912;52.754;5.994;2024-03-23T12:01:32;7.63;;;1.85;;
59127;SDS011;44912;52.754;5.994;2024-03-23T12:03:58;12.52;;;2.30;;
59127;SDS011;44912;52.754;5.994;2024-03-23T12:06:23;12.45;;;2.28;;
59127;SDS011;44912;52.754;5.994;2024-03-23T12:08:49;9.60;;;2.10;;
59127;SDS011;44912;52.754;5.994;2024-03-23T12:11:15;9.85;;;1.70;;
59127;SDS011;44912;52.754;5.994;2024-03-23T12:13:42;7.25;;;1.50;;
59127;SDS011;44912;52.754;5.994;2024-03-23T12:18:41;9.50;;;2.17;;
59127;SDS011;44912;52.754;5.994;2024-03-23T12:21:08;12.38;;;1.98;;
59127;SDS011;44912;52.754;5.994;2024-03-23T12:23:34;14.18;;;2.58;;
59127;SDS011;44912;52.754;5.994;2024-03-23T12:26:00;11.32;;;2.30;;
59127;SDS011;44912;52.754;5.994;2024-03-23T12:28:26;13.90;;;2.60;;
59127;SDS011;44912;52.754;5.994;2024-03-23T12:30:52;10.30;;;2.30;;
59127;SDS011;44912;52.754;5.994;2024-03-23T12:33:19;7.57;;;1.85;;
59127;SDS011;44912;52.754;5.994;2024-03-23T12:35:51;9.75;;;2.47;;
59127;SDS011;44912;52.754;5.994;2024-03-23T12:38:17;10.02;;;1.83;;
59127;SDS011;44912;52.754;5.994;2024-03-23T12:40:51;7.93;;;2.00;;
59127;SDS011;44912;52.754;5.994;2024-03-23T12:43:17;12.02;;;1.95;;
59127;SDS011;44912;52.754;5.994;2024-03-23T12:45:47;9.75;;;2.05;;
59127;SDS011;44912;52.754;5.994;2024-03-23T12:48:13;10.95;;;2.15;;
59127;SDS011;44912;52.754;5.994;2024-03-23T12:50:38;9.32;;;1.88;;
59127;SDS011;44912;52.754;5.994;2024-03-23T12:53:04;9.07;;;2.10;;
59127;SDS011;44912;52.754;5.994;2024-03-23T12:55:30;8.70;;;1.90;;
59127;SDS011;44912;52.754;5.994;2024-03-23T12:57:55;8.82;;;2.40;;
59127;SDS011;44912;52.754;5.994;2024-03-23T13:00:21;13.15;;;1.73;;
59127;SDS011;44912;52.754;5.994;2024-03-23T13:02:47;10.45;;;2.10;;
59127;SDS011;44912;52.754;5.994;2024-03-23T13:05:13;10.80;;;2.15;;
59127;SDS011;44912;52.754;5.994;2024-03-23T13:07:38;12.77;;;2.63;;
59127;SDS011;44912;52.754;5.994;2024-03-23T13:10:07;11.63;;;2.35;;
59127;SDS011;44912;52.754;5.994;2024-03-23T13:12:34;8.68;;;1.90;;
59127;SDS011;44912;52.754;5.994;2024-03-23T13:15:00;13.25;;;2.83;;
59127;SDS011;44912;52.754;5.994;2024-03-23T13:17:26;12.52;;;2.10;;
59127;SDS011;44912;52.754;5.994;2024-03-23T13:19:52;8.65;;;2.10;;
59127;SDS011;44912;52.754;5.994;2024-03-23T13:22:18;9.15;;;1.30;;
59127;SDS011;44912;52.754;5.994;2024-03-23T13:24:44;8.75;;;2.28;;
59127;SDS011;44912;52.754;5.994;2024-03-23T13:27:09;8.10;;;1.63;;
59127;SDS011;44912;52.754;5.994;2024-03-23T13:29:36;10.27;;;2.45;;
59127;SDS011;44912;52.754;5.994;2024-03-23T13:32:03;8.27;;;1.52;;
59127;SDS011;44912;52.754;5.994;2024-03-23T13:34:29;10.27;;;2.35;;
59127;SDS011;44912;52.754;5.994;2024-03-23T13:36:55;10.13;;;2.00;;
59127;SDS011;44912;52.754;5.994;2024-03-23T13:39:23;14.32;;;2.45;;
59127;SDS011;44912;52.754;5.994;2024-03-23T13:41:50;13.90;;;2.78;;
59127;SDS011;44912;52.754;5.994;2024-03-23T13:44:15;14.40;;;3.33;;
59127;SDS011;44912;52.754;5.994;2024-03-23T13:46:42;11.95;;;2.50;;
59127;SDS011;44912;52.754;5.994;2024-03-23T13:49:10;13.43;;;2.67;;
59127;SDS011;44912;52.754;5.994;2024-03-23T13:51:47;11.48;;;2.58;;
59127;SDS011;44912;52.754;5.994;2024-03-23T13:54:12;9.90;;;1.98;;
59127;SDS011;44912;52.754;5.994;2024-03-23T13:56:38;6.72;;;1.63;;
59127;SDS011;44912;52.754;5.994;2024-03-23T13:59:04;10.48;;;1.67;;
59127;SDS011;44912;52.754;5.994;2024-03-23T14:01:29;8.73;;;2.03;;
59127;SDS011;44912;52.754;5.994;2024-03-23T14:03:55;7.85;;;2.38;;
59127;SDS011;44912;52.754;5.994;2024-03-23T14:06:21;10.98;;;2.03;;
59127;SDS011;44912;52.754;5.994;2024-03-23T14:08:46;8.90;;;1.92;;
59127;SDS011;44912;52.754;5.994;2024-03-23T14:11:14;11.23;;;2.35;;
59127;SDS011;44912;52.754;5.994;2024-03-23T14:13:40;8.32;;;1.75;;
59127;SDS011;44912;52.754;5.994;2024-03-23T14:16:06;8.30;;;1.70;;
59127;SDS011;44912;52.754;5.994;2024-03-23T14:18:31;10.48;;;2.63;;
59127;SDS011;44912;52.754;5.994;2024-03-23T14:21:00;9.88;;;2.47;;
59127;SDS011;44912;52.754;5.994;2024-03-23T14:23:26;11.60;;;2.38;;
59127;SDS011;44912;52.754;5.994;2024-03-23T14:25:59;9.18;;;1.85;;
59127;SDS011;44912;52.754;5.994;2024-03-23T14:28:25;12.30;;;2.20;;
59127;SDS011;44912;52.754;5.994;2024-03-23T14:30:51;11.20;;;2.63;;
59127;SDS011;44912;52.754;5.994;2024-03-23T14:33:17;10.10;;;2.40;;
59127;SDS011;44912;52.754;5.994;2024-03-23T14:35:51;10.70;;;2.22;;
59127;SDS011;44912;52.754;5.994;2024-03-23T14:38:18;8.32;;;1.85;;
59127;SDS011;44912;52.754;5.994;2024-03-23T14:40:44;13.90;;;2.70;;
59127;SDS011;44912;52.754;5.994;2024-03-23T14:43:10;12.00;;;2.63;;
59127;SDS011;44912;52.754;5.994;2024-03-23T14:45:36;12.60;;;2.22;;
59127;SDS011;44912;52.754;5.994;2024-03-23T14:48:01;10.50;;;2.47;;
59127;SDS011;44912;52.754;5.994;2024-03-23T14:50:27;11.80;;;2.10;;
59127;SDS011;44912;52.754;5.994;2024-03-23T14:52:56;11.50;;;2.40;;
59127;SDS011;44912;52.754;5.994;2024-03-23T14:55:21;13.23;;;2.10;;
59127;SDS011;44912;52.754;5.994;2024-03-23T14:57:47;10.30;;;2.35;;
59127;SDS011;44912;52.754;5.994;2024-03-23T15:00:15;12.50;;;2.70;;
59127;SDS011;44912;52.754;5.994;2024-03-23T15:02:43;9.40;;;2.15;;
59127;SDS011;44912;52.754;5.994;2024-03-23T15:05:10;9.40;;;1.83;;
59127;SDS011;44912;52.754;5.994;2024-03-23T15:07:36;9.35;;;2.15;;
59127;SDS011;44912;52.754;5.994;2024-03-23T15:10:05;10.52;;;2.53;;
59127;SDS011;44912;52.754;5.994;2024-03-23T15:12:33;8.38;;;1.70;;
59127;SDS011;44912;52.754;5.994;2024-03-23T15:14:59;9.00;;;1.88;;
59127;SDS011;44912;52.754;5.994;2024-03-23T15:17:25;8.18;;;1.40;;
59127;SDS011;44912;52.754;5.994;2024-03-23T15:19:51;8.07;;;1.45;;
59127;SDS011;44912;52.754;5.994;2024-03-23T15:22:18;8.57;;;2.08;;
59127;SDS011;44912;52.754;5.994;2024-03-23T15:24:44;15.68;;;6.03;;
59127;SDS011;44912;52.754;5.994;2024-03-23T15:27:10;8.95;;;2.60;;
59127;SDS011;44912;52.754;5.994;2024-03-23T15:29:36;4.43;;;1.40;;
59127;SDS011;44912;52.754;5.994;2024-03-23T15:32:02;8.55;;;1.50;;
59127;SDS011;44912;52.754;5.994;2024-03-23T15:34:28;7.20;;;1.30;;
59127;SDS011;44912;52.754;5.994;2024-03-23T15:36:54;12.45;;;3.22;;
59127;SDS011;44912;52.754;5.994;2024-03-23T15:39:20;8.38;;;1.60;;
59127;SDS011;44912;52.754;5.994;2024-03-23T15:41:47;9.05;;;1.65;;
59127;SDS011;44912;52.754;5.994;2024-03-23T15:44:13;10.27;;;2.78;;
59127;SDS011;44912;52.754;5.994;2024-03-23T15:46:39;12.55;;;2.45;;